Time,TemperatureF,DewpointF,PressureIn,WindDirection,WindDirectionDegrees,WindSpeedMPH,WindSpeedGustMPH,Humidity,HourlyPrecipIn,Conditions,Clouds,dailyrainin,SoftwareType,DateUTC
2013-04-10 00:08:00,48.7,43.0,29.98,North,-999,-999.0,-999.0,80,-99.99,,,0.00,weatherlink.com 1.10,2013-04-10 04:08:00,
2013-04-10 00:23:00,48.5,43.0,29.97,North,-999,-999.0,-999.0,80,-99.99,,,0.00,weatherlink.com 1.10,2013-04-10 04:23:00,
2013-04-10 00:38:00,48.1,42.0,29.96,North,-999,-999.0,-999.0,80,-99.99,,,0.00,weatherlink.com 1.10,2013-04-10 04:38:00,
2013-04-10 00:53:00,47.7,42.0,29.95,North,-999,-999.0,-999.0,81,-99.99,,,0.00,weatherlink.com 1.10,2013-04-10 04:53:00,
2013-04-10 01:08:00,47.3,42.0,29.94,North,-999,-999.0,-999.0,82,-99.99,,,0.00,weatherlink.com 1.10,2013-04-10 05:08:00,
2013-04-10 01:23:00,46.9,42.0,29.94,North,-999,-999.0,-999.0,83,-99.99,,,0.00,weatherlink.com 1.10,2013-04-10 05:23:00,
2013-04-10 01:38:00,46.7,42.0,29.94,North,-999,-999.0,-999.0,84,-99.99,,,0.00,weatherlink.com 1.10,2013-04-10 05:38:00,
2013-04-10 01:53:00,46.7,42.0,29.93,North,-999,-999.0,-999.0,84,-99.99,,,0.00,weatherlink.com 1.10,2013-04-10 05:53:00,
2013-04-10 02:08:00,46.7,42.0,29.95,North,-999,-999.0,-999.0,83,-99.99,,,0.00,weatherlink.com 1.10,2013-04-10 06:08:00,
2013-04-10 02:24:00,46.7,42.0,29.93,North,-999,-999.0,-999.0,83,-99.99,,,0.00,weatherlink.com 1.10,2013-04-10 06:24:00,
2013-04-10 02:39:00,46.8,42.0,29.92,North,-999,-999.0,-999.0,83,-99.99,,,0.00,weatherlink.com 1.10,2013-04-10 06:39:00,
2013-04-10 02:54:00,46.9,42.0,29.92,North,-999,-999.0,-999.0,82,-99.99,,,0.00,weatherlink.com 1.10,2013-04-10 06:54:00,
2013-04-10 03:09:00,47.0,42.0,29.94,North,-999,-999.0,-999.0,83,-99.99,,,0.00,weatherlink.com 1.10,2013-04-10 07:09:00,
2013-04-10 03:24:00,47.1,42.0,29.94,North,-999,-999.0,-999.0,82,-99.99,,,0.00,weatherlink.com 1.10,2013-04-10 07:24:00,
2013-04-10 03:39:00,47.0,42.0,29.97,North,-999,-999.0,-999.0,83,-99.99,,,0.00,weatherlink.com 1.10,2013-04-10 07:39:00,
2013-04-10 03:54:00,47.0,42.0,29.99,North,-999,-999.0,-999.0,84,-99.99,,,0.00,weatherlink.com 1.10,2013-04-10 07:54:00,
2013-04-10 04:09:00,46.7,43.0,29.98,North,-999,-999.0,-999.0,86,-99.99,,,0.06,weatherlink.com 1.10,2013-04-10 08:09:00,
2013-04-10 04:24:00,46.5,43.0,29.97,North,-999,-999.0,-999.0,87,-99.99,,,0.12,weatherlink.com 1.10,2013-04-10 08:24:00,
2013-04-10 04:39:00,46.4,43.0,29.93,North,-999,-999.0,-999.0,88,-99.99,,,0.16,weatherlink.com 1.10,2013-04-10 08:39:00,
2013-04-10 04:54:00,46.1,43.0,29.90,North,-999,-999.0,-999.0,89,-99.99,,,0.17,weatherlink.com 1.10,2013-04-10 08:54:00,
2013-04-10 05:09:00,45.9,43.0,29.89,North,-999,-999.0,-999.0,89,-99.99,,,0.17,weatherlink.com 1.10,2013-04-10 09:09:00,
2013-04-10 05:24:00,45.4,42.0,29.87,North,-999,-999.0,-999.0,89,-99.99,,,0.17,weatherlink.com 1.10,2013-04-10 09:24:00,
2013-04-10 05:39:00,45.1,42.0,29.86,North,-999,-999.0,-999.0,89,-99.99,,,0.17,weatherlink.com 1.10,2013-04-10 09:39:00,
2013-04-10 05:55:00,45.1,42.0,29.87,North,-999,-999.0,-999.0,90,-99.99,,,0.17,weatherlink.com 1.10,2013-04-10 09:55:00,
2013-04-10 06:10:00,45.2,43.0,29.88,North,-999,-999.0,-999.0,90,-99.99,,,0.17,weatherlink.com 1.10,2013-04-10 10:10:00,
2013-04-10 06:25:00,45.2,43.0,29.89,North,-999,-999.0,-999.0,90,-99.99,,,0.17,weatherlink.com 1.10,2013-04-10 10:25:00,
2013-04-10 06:40:00,45.1,43.0,29.89,North,-999,-999.0,-999.0,91,-99.99,,,0.17,weatherlink.com 1.10,2013-04-10 10:40:00,
2013-04-10 06:55:00,45.1,43.0,29.90,North,-999,-999.0,-999.0,91,-99.99,,,0.17,weatherlink.com 1.10,2013-04-10 10:55:00,
2013-04-10 07:10:00,45.4,43.0,29.90,North,-999,-999.0,-999.0,91,-99.99,,,0.17,weatherlink.com 1.10,2013-04-10 11:10:00,
2013-04-10 07:25:00,45.6,43.0,29.90,North,-999,-999.0,-999.0,91,-99.99,,,0.17,weatherlink.com 1.10,2013-04-10 11:25:00,
2013-04-10 07:40:00,45.9,44.0,29.91,North,-999,-999.0,-999.0,91,-99.99,,,0.17,weatherlink.com 1.10,2013-04-10 11:40:00,
2013-04-10 07:55:00,46.3,44.0,29.93,North,-999,-999.0,-999.0,91,-99.99,,,0.17,weatherlink.com 1.10,2013-04-10 11:55:00,
2013-04-10 08:10:00,47.4,45.0,29.93,North,-999,-999.0,-999.0,91,-99.99,,,0.17,weatherlink.com 1.10,2013-04-10 12:10:00,
2013-04-10 08:25:00,48.5,45.0,29.92,North,-999,-999.0,-999.0,88,-99.99,,,0.17,weatherlink.com 1.10,2013-04-10 12:25:00,
2013-04-10 08:40:00,49.1,45.0,29.91,North,-999,-999.0,-999.0,87,-99.99,,,0.17,weatherlink.com 1.10,2013-04-10 12:40:00,
2013-04-10 08:55:00,50.7,46.0,29.91,North,-999,-999.0,-999.0,85,-99.99,,,0.17,weatherlink.com 1.10,2013-04-10 12:55:00,
2013-04-10 09:11:00,51.8,46.0,29.92,North,-999,-999.0,-999.0,81,-99.99,,,0.17,weatherlink.com 1.10,2013-04-10 13:11:00,
2013-04-10 09:26:00,53.0,47.0,29.91,North,-999,-999.0,-999.0,80,-99.99,,,0.17,weatherlink.com 1.10,2013-04-10 13:26:00,
2013-04-10 10:11:00,55.3,48.0,29.93,North,-999,-999.0,-999.0,75,-99.99,,,0.17,weatherlink.com 1.10,2013-04-10 14:11:00,
2013-04-10 10:41:00,56.6,48.0,29.92,North,-999,-999.0,-999.0,74,-99.99,,,0.17,weatherlink.com 1.10,2013-04-10 14:41:00,
2013-04-10 10:56:00,57.7,48.0,29.92,North,-999,-999.0,-999.0,71,-99.99,,,0.17,weatherlink.com 1.10,2013-04-10 14:56:00,
2013-04-10 11:11:00,58.1,48.0,29.92,North,-999,-999.0,-999.0,70,-99.99,,,0.17,weatherlink.com 1.10,2013-04-10 15:11:00,
2013-04-10 11:26:00,58.0,48.0,29.92,ENE,60,4.0,-999.0,70,-99.99,,,0.17,weatherlink.com 1.10,2013-04-10 15:26:00,
2013-04-10 11:41:00,58.6,47.0,29.94,NE,56,0.0,-999.0,66,-99.99,,,0.17,weatherlink.com 1.10,2013-04-10 15:41:00,
2013-04-10 11:56:00,59.5,48.0,29.95,East,89,0.0,-999.0,66,-99.99,,,0.17,weatherlink.com 1.10,2013-04-10 15:56:00,
2013-04-10 12:11:00,59.8,48.0,29.94,NE,38,2.0,-999.0,66,-99.99,,,0.17,weatherlink.com 1.10,2013-04-10 16:11:00,
2013-04-10 12:26:00,61.3,49.0,29.92,East,100,0.0,-999.0,64,-99.99,,,0.17,weatherlink.com 1.10,2013-04-10 16:26:00,
2013-04-10 12:41:00,61.2,47.0,29.92,ENE,66,1.0,-999.0,61,-99.99,,,0.17,weatherlink.com 1.10,2013-04-10 16:41:00,
2013-04-10 12:57:00,62.4,49.0,29.93,ENE,67,4.0,-999.0,63,-99.99,,,0.17,weatherlink.com 1.10,2013-04-10 16:57:00,
2013-04-10 13:11:00,62.8,49.0,29.93,ENE,59,0.0,-999.0,62,-99.99,,,0.17,weatherlink.com 1.10,2013-04-10 17:11:00,
2013-04-10 13:26:00,63.0,49.0,29.93,NE,54,4.0,-999.0,60,-99.99,,,0.17,weatherlink.com 1.10,2013-04-10 17:26:00,
2013-04-10 13:41:00,63.2,49.0,29.92,ENE,63,5.0,-999.0,60,-99.99,,,0.17,weatherlink.com 1.10,2013-04-10 17:41:00,
2013-04-10 13:57:00,63.1,48.0,29.92,ESE,107,0.0,-999.0,58,-99.99,,,0.17,weatherlink.com 1.10,2013-04-10 17:57:00,
2013-04-10 14:12:00,64.3,49.0,29.91,ENE,72,1.0,-999.0,57,-99.99,,,0.17,weatherlink.com 1.10,2013-04-10 18:12:00,
2013-04-10 14:27:00,64.7,49.0,29.92,ENE,59,0.0,-999.0,57,-99.99,,,0.17,weatherlink.com 1.10,2013-04-10 18:27:00,
2013-04-10 14:57:00,65.9,51.0,29.91,ENE,67,3.0,-999.0,60,-99.99,,,0.17,weatherlink.com 1.10,2013-04-10 18:57:00,
2013-04-10 15:12:00,65.9,50.0,29.90,ESE,106,0.0,-999.0,56,-99.99,,,0.17,weatherlink.com 1.10,2013-04-10 19:12:00,
2013-04-10 15:27:00,65.7,49.0,29.88,East,84,5.0,-999.0,55,-99.99,,,0.17,weatherlink.com 1.10,2013-04-10 19:27:00,
2013-04-10 15:42:00,64.9,49.0,29.88,East,96,3.0,-999.0,57,-99.99,,,0.17,weatherlink.com 1.10,2013-04-10 19:42:00,
2013-04-10 15:57:00,65.1,49.0,29.88,ESE,109,1.0,-999.0,57,-99.99,,,0.17,weatherlink.com 1.10,2013-04-10 19:57:00,
2013-04-10 16:12:00,64.8,49.0,29.86,ESE,112,0.0,-999.0,57,-99.99,,,0.17,weatherlink.com 1.10,2013-04-10 20:12:00,
2013-04-10 16:28:00,65.3,49.0,29.85,SE,136,0.0,-999.0,56,-99.99,,,0.17,weatherlink.com 1.10,2013-04-10 20:28:00,
2013-04-10 16:42:00,65.6,49.0,29.84,SSE,155,0.0,-999.0,56,-99.99,,,0.17,weatherlink.com 1.10,2013-04-10 20:42:00,
2013-04-10 16:57:00,64.7,48.0,29.87,SSE,161,5.0,-999.0,56,-99.99,,,0.17,weatherlink.com 1.10,2013-04-10 20:57:00,
2013-04-10 17:12:00,63.1,48.0,29.86,South,184,3.0,-999.0,58,-99.99,,,0.17,weatherlink.com 1.10,2013-04-10 21:12:00,
2013-04-10 17:27:00,62.3,47.0,29.87,South,182,2.0,-999.0,58,-99.99,,,0.17,weatherlink.com 1.10,2013-04-10 21:27:00,
2013-04-10 17:42:00,61.9,47.0,29.88,SSW,208,7.0,-999.0,59,-99.99,,,0.17,weatherlink.com 1.10,2013-04-10 21:42:00,
2013-04-10 17:57:00,60.6,47.0,29.89,South,176,5.0,-999.0,61,-99.99,,,0.17,weatherlink.com 1.10,2013-04-10 21:57:00,
2013-04-10 18:12:00,59.1,46.0,29.90,North,-999,-999.0,-999.0,63,-99.99,,,0.17,weatherlink.com 1.10,2013-04-10 22:12:00,
2013-04-10 18:27:00,58.0,46.0,29.89,North,-999,-999.0,-999.0,65,-99.99,,,0.17,weatherlink.com 1.10,2013-04-10 22:27:00,
2013-04-10 18:42:00,56.6,45.0,29.87,North,-999,-999.0,-999.0,66,-99.99,,,0.17,weatherlink.com 1.10,2013-04-10 22:42:00,
2013-04-10 18:57:00,55.8,45.0,29.87,North,-999,-999.0,-999.0,68,-99.99,,,0.17,weatherlink.com 1.10,2013-04-10 22:57:00,
2013-04-10 19:12:00,54.7,45.0,29.87,North,-999,-999.0,-999.0,70,-99.99,,,0.17,weatherlink.com 1.10,2013-04-10 23:12:00,
2013-04-10 19:27:00,53.6,45.0,29.87,North,-999,-999.0,-999.0,72,-99.99,,,0.17,weatherlink.com 1.10,2013-04-10 23:27:00,
2013-04-10 19:42:00,52.7,45.0,29.86,North,-999,-999.0,-999.0,74,-99.99,,,0.17,weatherlink.com 1.10,2013-04-10 23:42:00,
2013-04-10 19:57:00,51.3,44.0,29.86,North,-999,-999.0,-999.0,75,-99.99,,,0.17,weatherlink.com 1.10,2013-04-10 23:57:00,
2013-04-10 20:12:00,50.3,43.0,29.87,North,-999,-999.0,-999.0,77,-99.99,,,0.17,weatherlink.com 1.10,2013-04-11 00:12:00,
2013-04-10 20:27:00,49.7,43.0,29.87,North,-999,-999.0,-999.0,78,-99.99,,,0.17,weatherlink.com 1.10,2013-04-11 00:27:00,
2013-04-10 20:43:00,49.3,43.0,29.91,North,-999,-999.0,-999.0,78,-99.99,,,0.17,weatherlink.com 1.10,2013-04-11 00:43:00,
2013-04-10 20:58:00,48.8,44.0,30.01,North,-999,-999.0,-999.0,84,-99.99,,,0.24,weatherlink.com 1.10,2013-04-11 00:58:00,
2013-04-10 21:13:00,48.5,44.0,29.93,North,-999,-999.0,-999.0,85,-99.99,,,0.32,weatherlink.com 1.10,2013-04-11 01:13:00,
2013-04-10 21:28:00,48.1,44.0,29.90,North,-999,-999.0,-999.0,86,-99.99,,,0.36,weatherlink.com 1.10,2013-04-11 01:28:00,
2013-04-10 21:43:00,47.6,44.0,29.89,North,-999,-999.0,-999.0,87,-99.99,,,0.36,weatherlink.com 1.10,2013-04-11 01:43:00,
2013-04-10 21:58:00,47.2,44.0,29.87,North,-999,-999.0,-999.0,87,-99.99,,,0.36,weatherlink.com 1.10,2013-04-11 01:58:00,
2013-04-10 22:13:00,47.0,44.0,29.84,North,-999,-999.0,-999.0,88,-99.99,,,0.36,weatherlink.com 1.10,2013-04-11 02:13:00,
2013-04-10 22:28:00,47.0,44.0,29.84,North,-999,-999.0,-999.0,89,-99.99,,,0.36,weatherlink.com 1.10,2013-04-11 02:28:00,
2013-04-10 22:43:00,46.8,44.0,29.85,North,-999,-999.0,-999.0,89,-99.99,,,0.36,weatherlink.com 1.10,2013-04-11 02:43:00,
2013-04-10 22:59:00,46.8,44.0,29.86,North,-999,-999.0,-999.0,89,-99.99,,,0.36,weatherlink.com 1.10,2013-04-11 02:59:00,
2013-04-10 23:14:00,46.8,44.0,29.88,North,-999,-999.0,-999.0,90,-99.99,,,0.38,weatherlink.com 1.10,2013-04-11 03:14:00,
2013-04-10 23:44:00,46.7,44.0,29.88,North,-999,-999.0,-999.0,90,-99.99,,,0.40,weatherlink.com 1.10,2013-04-11 03:44:00,
2013-04-10 23:59:00,46.6,44.0,29.88,North,-999,-999.0,-999.0,90,-99.99,,,0.43,weatherlink.com 1.10,2013-04-11 03:59:00,